Time;durP1;ratioP1;P1;durP2;ratioP2;P2;SDS_P1;SDS_P2;PMS_P1;PMS_P2;Temp;Humidity;BMP_temperature;BMP_pressure;BME280_temperature;BME280_humidity;BME280_pressure;Samples;Min_cycle;Max_cycle;Signal;HPM_P1;HPM_P2
2021/03/20 00:01:54;;;;;;;12.25;7.75;;;;;;;;;;5045579;28;20027;-84
2021/03/20 00:04:20;;;;;;;11.10;6.90;;;;;;;;;;5047680;28;20127;-85
2021/03/20 00:06:47;;;;;;;15.40;6.95;;;;;;;;;;5047878;28;20029;-85
2021/03/20 00:09:14;;;;;;;13.60;7.50;;;;;;;;;;5048555;28;20021;-84
2021/03/20 00:11:41;;;;;;;12.55;7.55;;;;;;;;;;5046544;28;20048;-85
2021/03/20 00:14:06;;;;;;;15.73;7.45;;;;;;;;;;5048254;28;20025;-84
2021/03/20 00:16:31;;;;;;;15.77;7.30;;;;;;;;;;5049145;28;20021;-84
2021/03/20 00:18:56;;;;;;;16.63;7.78;;;;;;;;;;5046373;28;20036;-84
2021/03/20 00:21:22;;;;;;;11.82;7.18;;;;;;;;;;5046942;28;20037;-84
2021/03/20 00:23:47;;;;;;;15.05;8.13;;;;;;;;;;5044111;28;20030;-84
2021/03/20 00:26:13;;;;;;;12.38;7.00;;;;;;;;;;5046591;28;20032;-84
2021/03/20 00:28:38;;;;;;;11.73;7.15;;;;;;;;;;5048024;28;20032;-85
2021/03/20 00:31:09;;;;;;;15.75;8.48;;;;;;;;;;5046458;28;20039;-84
2021/03/20 00:33:34;;;;;;;12.38;7.80;;;;;;;;;;5049021;28;20028;-84
2021/03/20 00:35:59;;;;;;;12.77;7.43;;;;;;;;;;5050118;28;20025;-84
2021/03/20 00:38:26;;;;;;;14.80;8.05;;;;;;;;;;5050818;28;20481;-84
2021/03/20 00:40:52;;;;;;;13.93;8.00;;;;;;;;;;5051415;28;20492;-83
2021/03/20 00:43:17;;;;;;;14.55;8.35;;;;;;;;;;5047802;28;20028;-84
2021/03/20 00:45:42;;;;;;;15.90;8.00;;;;;;;;;;5049902;28;20049;-84
2021/03/20 00:48:19;;;;;;;13.50;7.43;;;;;;;;;;5049858;28;20020;-84
2021/03/20 00:50:44;;;;;;;14.85;8.50;;;;;;;;;;5050161;28;20114;-84
2021/03/20 00:53:10;;;;;;;12.73;8.32;;;;;;;;;;5050529;28;20497;-84
2021/03/20 00:55:35;;;;;;;15.95;8.70;;;;;;;;;;5050438;28;20025;-84
2021/03/20 00:58:00;;;;;;;14.15;7.90;;;;;;;;;;5049975;28;20025;-84
2021/03/20 01:00:27;;;;;;;14.80;8.50;;;;;;;;;;5050929;28;20031;-84
2021/03/20 01:02:52;;;;;;;16.90;8.10;;;;;;;;;;5057712;28;20024;-84
2021/03/20 01:05:18;;;;;;;16.02;8.70;;;;;;;;;;5048496;28;20081;-84
2021/03/20 01:07:43;;;;;;;14.75;7.90;;;;;;;;;;5049988;28;20068;-84
2021/03/20 01:10:10;;;;;;;23.20;9.18;;;;;;;;;;5049748;28;20049;-84
2021/03/20 01:12:36;;;;;;;15.38;8.02;;;;;;;;;;5049876;28;20100;-85
2021/03/20 01:15:01;;;;;;;16.98;9.77;;;;;;;;;;5045884;28;20041;-84
2021/03/20 01:17:26;;;;;;;13.30;8.63;;;;;;;;;;5050135;28;20024;-84
2021/03/20 01:19:52;;;;;;;16.20;9.70;;;;;;;;;;5048424;28;20401;-84
2021/03/20 01:22:17;;;;;;;14.50;7.93;;;;;;;;;;5048937;28;20085;-84
2021/03/20 01:24:42;;;;;;;13.65;8.55;;;;;;;;;;5050689;28;20116;-84
2021/03/20 01:27:07;;;;;;;12.52;8.43;;;;;;;;;;5044769;28;20060;-84
2021/03/20 01:29:32;;;;;;;16.30;8.68;;;;;;;;;;5051295;28;20021;-84
2021/03/20 01:31:58;;;;;;;14.70;9.18;;;;;;;;;;5047714;28;20025;-84
2021/03/20 01:34:23;;;;;;;13.55;8.85;;;;;;;;;;5034101;28;20128;-84
2021/03/20 01:36:48;;;;;;;13.77;8.25;;;;;;;;;;5049442;28;20435;-84
2021/03/20 01:39:13;;;;;;;16.25;9.45;;;;;;;;;;5049108;28;20028;-85
2021/03/20 01:41:41;;;;;;;17.23;9.20;;;;;;;;;;5035629;28;20022;-83
2021/03/20 01:44:06;;;;;;;14.82;8.77;;;;;;;;;;5048293;28;20048;-84
2021/03/20 01:46:40;;;;;;;16.15;9.55;;;;;;;;;;5049417;28;20114;-84
2021/03/20 01:49:11;;;;;;;15.30;9.75;;;;;;;;;;5050318;28;20111;-84
2021/03/20 01:51:36;;;;;;;16.77;9.40;;;;;;;;;;5048811;28;20025;-85
2021/03/20 01:54:02;;;;;;;15.90;9.00;;;;;;;;;;5049614;28;20020;-84
2021/03/20 01:56:31;;;;;;;16.95;9.40;;;;;;;;;;5049753;28;20024;-84
2021/03/20 01:58:57;;;;;;;15.73;9.23;;;;;;;;;;5050641;28;20051;-84
2021/03/20 02:01:25;;;;;;;15.15;9.70;;;;;;;;;;5048056;28;20025;-84
2021/03/20 02:03:51;;;;;;;15.63;8.68;;;;;;;;;;5048671;28;20025;-84
2021/03/20 02:06:16;;;;;;;16.33;9.82;;;;;;;;;;5048578;28;20025;-84
2021/03/20 02:08:42;;;;;;;16.92;9.10;;;;;;;;;;5049714;28;20027;-84
2021/03/20 02:11:18;;;;;;;14.85;9.20;;;;;;;;;;5049045;28;20025;-85
2021/03/20 02:13:47;;;;;;;14.98;9.25;;;;;;;;;;5048801;28;20070;-84
2021/03/20 02:16:17;;;;;;;16.58;8.95;;;;;;;;;;5049005;28;20370;-84
2021/03/20 02:18:47;;;;;;;18.73;9.27;;;;;;;;;;5049858;28;20029;-84
2021/03/20 02:21:15;;;;;;;16.58;8.80;;;;;;;;;;5049402;28;20017;-85
2021/03/20 02:23:59;;;;;;;21.50;10.50;;;;;;;;;;5050675;28;20067;-84
2021/03/20 02:26:34;;;;;;;15.43;9.65;;;;;;;;;;5041210;28;20075;-84
2021/03/20 02:29:19;;;;;;;19.98;10.15;;;;;;;;;;5047158;28;20028;-84
2021/03/20 02:31:44;;;;;;;20.95;10.48;;;;;;;;;;5049522;28;20021;-84
2021/03/20 02:34:21;;;;;;;18.52;10.35;;;;;;;;;;5049599;28;20062;-84
2021/03/20 02:36:47;;;;;;;20.15;11.00;;;;;;;;;;5048047;28;20084;-84
2021/03/20 02:39:15;;;;;;;17.35;9.65;;;;;;;;;;5046749;28;20021;-83
2021/03/20 02:41:47;;;;;;;20.17;10.90;;;;;;;;;;5048977;28;20075;-84
2021/03/20 02:44:18;;;;;;;19.48;10.88;;;;;;;;;;5047622;28;20515;-84
2021/03/20 02:46:49;;;;;;;21.10;10.70;;;;;;;;;;5047885;28;20071;-84
2021/03/20 02:49:22;;;;;;;18.52;10.48;;;;;;;;;;5047469;28;20024;-84
2021/03/20 02:51:51;;;;;;;17.45;9.60;;;;;;;;;;5048620;28;20049;-83
2021/03/20 02:54:16;;;;;;;27.55;9.77;;;;;;;;;;5047600;28;20023;-85
2021/03/20 02:56:53;;;;;;;20.08;10.27;;;;;;;;;;5047790;28;20021;-83
2021/03/20 02:59:21;;;;;;;21.40;9.13;;;;;;;;;;5048504;28;20043;-84
2021/03/20 03:01:47;;;;;;;16.90;9.52;;;;;;;;;;5048998;28;20017;-84
2021/03/20 03:04:14;;;;;;;15.82;8.77;;;;;;;;;;5047540;28;20433;-84
2021/03/20 03:06:45;;;;;;;17.48;9.23;;;;;;;;;;5048089;28;20025;-84
2021/03/20 03:09:16;;;;;;;18.27;9.52;;;;;;;;;;5040581;28;20036;-83
2021/03/20 03:11:47;;;;;;;17.35;9.40;;;;;;;;;;5047599;28;20033;-84
2021/03/20 03:14:19;;;;;;;16.17;8.73;;;;;;;;;;5047019;28;20028;-84
2021/03/20 03:16:50;;;;;;;19.00;9.18;;;;;;;;;;5049264;28;20021;-84
2021/03/20 03:19:27;;;;;;;15.57;8.48;;;;;;;;;;5046378;28;20170;-84
2021/03/20 03:21:55;;;;;;;13.63;8.25;;;;;;;;;;5047621;28;20104;-84
2021/03/20 03:24:22;;;;;;;14.93;7.80;;;;;;;;;;5046276;28;20081;-83
2021/03/20 03:26:54;;;;;;;17.83;7.90;;;;;;;;;;5050409;28;20021;-83
2021/03/20 03:29:23;;;;;;;15.48;8.15;;;;;;;;;;5047588;28;20374;-83
2021/03/20 03:31:53;;;;;;;13.57;7.95;;;;;;;;;;5047202;28;20048;-83
2021/03/20 03:34:21;;;;;;;17.75;7.75;;;;;;;;;;5064470;28;20056;-84
2021/03/20 03:36:54;;;;;;;14.23;7.28;;;;;;;;;;5050062;28;20017;-83
2021/03/20 03:39:31;;;;;;;13.50;7.03;;;;;;;;;;5048966;28;20024;-84
2021/03/20 03:41:56;;;;;;;15.27;6.75;;;;;;;;;;5049338;28;20024;-83
2021/03/20 03:44:22;;;;;;;13.20;6.68;;;;;;;;;;5048785;28;20396;-84
2021/03/20 03:46:47;;;;;;;15.18;6.47;;;;;;;;;;5034102;28;20493;-84
2021/03/20 03:49:15;;;;;;;14.57;6.05;;;;;;;;;;5047441;28;20078;-84
2021/03/20 03:51:41;;;;;;;9.73;5.63;;;;;;;;;;5046600;28;20044;-84
2021/03/20 03:54:06;;;;;;;12.73;6.38;;;;;;;;;;5047560;28;20087;-84
2021/03/20 03:56:38;;;;;;;14.70;5.70;;;;;;;;;;5046749;28;20029;-84
2021/03/20 03:59:22;;;;;;;9.48;5.15;;;;;;;;;;5048122;28;20124;-84
2021/03/20 04:02:06;;;;;;;10.82;5.07;;;;;;;;;;5053505;28;20025;-84
2021/03/20 04:04:37;;;;;;;7.75;4.60;;;;;;;;;;5049062;28;20040;-84
2021/03/20 04:07:05;;;;;;;12.45;5.13;;;;;;;;;;5047534;28;20121;-84
2021/03/20 04:09:41;;;;;;;10.65;5.38;;;;;;;;;;5050460;28;20159;-84
2021/03/20 04:12:12;;;;;;;14.88;5.55;;;;;;;;;;5051066;28;20107;-83
2021/03/20 04:14:42;;;;;;;7.80;4.47;;;;;;;;;;5048109;28;20021;-84
2021/03/20 04:17:10;;;;;;;10.20;3.90;;;;;;;;;;5048182;28;20021;-83
2021/03/20 04:19:54;;;;;;;10.18;4.78;;;;;;;;;;5057949;28;20029;-83
2021/03/20 04:22:28;;;;;;;10.77;3.88;;;;;;;;;;5058201;28;20017;-83
2021/03/20 04:24:59;;;;;;;12.30;4.40;;;;;;;;;;5064524;28;20367;-83
2021/03/20 04:27:28;;;;;;;6.43;3.42;;;;;;;;;;5061342;28;20036;-84
2021/03/20 04:29:53;;;;;;;6.47;3.67;;;;;;;;;;5061542;28;20029;-83
2021/03/20 04:32:24;;;;;;;13.02;3.30;;;;;;;;;;5066934;28;20019;-84
2021/03/20 04:35:00;;;;;;;7.00;3.17;;;;;;;;;;5065594;28;20397;-83
2021/03/20 04:37:27;;;;;;;5.88;3.40;;;;;;;;;;5065726;28;20017;-84
2021/03/20 04:39:54;;;;;;;6.97;3.40;;;;;;;;;;5063024;28;20039;-84
2021/03/20 04:42:22;;;;;;;7.88;3.17;;;;;;;;;;5063189;28;20112;-84
2021/03/20 04:44:48;;;;;;;5.80;3.08;;;;;;;;;;5066619;28;20040;-84
2021/03/20 04:47:18;;;;;;;5.78;3.10;;;;;;;;;;5063964;28;20005;-83
2021/03/20 04:49:53;;;;;;;5.68;2.83;;;;;;;;;;5061197;28;20055;-83
2021/03/20 04:52:34;;;;;;;6.35;2.80;;;;;;;;;;5065694;28;20112;-84
2021/03/20 04:55:02;;;;;;;7.38;2.70;;;;;;;;;;5059351;28;20021;-84
2021/03/20 04:57:38;;;;;;;12.63;3.22;;;;;;;;;;5050160;28;20021;-83
2021/03/20 05:00:22;;;;;;;8.95;3.10;;;;;;;;;;5051029;28;20030;-83
2021/03/20 05:02:58;;;;;;;4.50;2.53;;;;;;;;;;5049221;28;20017;-83
2021/03/20 05:05:23;;;;;;;6.70;2.78;;;;;;;;;;5048982;28;20025;-83
2021/03/20 05:07:50;;;;;;;8.27;3.60;;;;;;;;;;5044700;28;20040;-83
2021/03/20 05:10:19;;;;;;;9.35;3.53;;;;;;;;;;5048843;28;20079;-85
2021/03/20 05:12:48;;;;;;;6.53;3.15;;;;;;;;;;5049055;28;20107;-83
2021/03/20 05:15:22;;;;;;;7.45;3.67;;;;;;;;;;5048003;28;20108;-84
2021/03/20 05:17:47;;;;;;;7.55;3.00;;;;;;;;;;5047291;28;20064;-84
2021/03/20 05:20:13;;;;;;;9.27;3.00;;;;;;;;;;5049677;28;20091;-83
2021/03/20 05:22:38;;;;;;;6.78;3.45;;;;;;;;;;5048573;28;20021;-84
2021/03/20 05:25:04;;;;;;;9.60;3.67;;;;;;;;;;5042307;28;20465;-84
2021/03/20 05:27:31;;;;;;;9.20;3.35;;;;;;;;;;5046985;28;20032;-84
2021/03/20 05:29:56;;;;;;;9.07;3.38;;;;;;;;;;5047606;28;20102;-84
2021/03/20 05:32:28;;;;;;;9.90;3.80;;;;;;;;;;5040834;28;20061;-83
2021/03/20 05:34:54;;;;;;;9.30;3.33;;;;;;;;;;5043224;28;20607;-84
2021/03/20 05:37:22;;;;;;;6.55;3.53;;;;;;;;;;5049985;28;20036;-83
2021/03/20 05:39:48;;;;;;;8.20;3.58;;;;;;;;;;5033837;28;20022;-83
2021/03/20 05:42:21;;;;;;;6.80;3.53;;;;;;;;;;5049539;28;20543;-84
2021/03/20 05:45:05;;;;;;;6.38;3.20;;;;;;;;;;5035097;28;20097;-83
2021/03/20 05:47:43;;;;;;;6.50;3.30;;;;;;;;;;5049666;28;20048;-84
2021/03/20 05:50:11;;;;;;;7.88;3.80;;;;;;;;;;5050815;28;20025;-84
2021/03/20 05:52:42;;;;;;;12.02;3.47;;;;;;;;;;5058202;28;20025;-84
2021/03/20 05:55:18;;;;;;;8.38;3.72;;;;;;;;;;5065730;28;20028;-84
2021/03/20 05:57:46;;;;;;;8.55;3.80;;;;;;;;;;5065353;28;20039;-84
2021/03/20 06:00:11;;;;;;;7.03;3.60;;;;;;;;;;5066059;28;20028;-84
2021/03/20 06:02:43;;;;;;;15.15;4.05;;;;;;;;;;5068538;28;20024;-83
2021/03/20 06:05:14;;;;;;;7.38;4.00;;;;;;;;;;5066643;28;20017;-83
2021/03/20 06:07:46;;;;;;;9.82;4.25;;;;;;;;;;5063855;28;20017;-83
2021/03/20 06:10:21;;;;;;;6.80;3.20;;;;;;;;;;5051693;28;20100;-84
2021/03/20 06:12:46;;;;;;;15.38;6.78;;;;;;;;;;5050052;28;20016;-83
2021/03/20 06:15:12;;;;;;;9.52;3.95;;;;;;;;;;5051372;28;20104;-85
2021/03/20 06:17:50;;;;;;;6.85;3.92;;;;;;;;;;5047913;28;20025;-84
2021/03/20 06:20:22;;;;;;;7.97;4.20;;;;;;;;;;5055757;28;20056;-83
2021/03/20 06:23:03;;;;;;;9.57;3.60;;;;;;;;;;5050661;28;20044;-84
2021/03/20 06:25:28;;;;;;;8.10;4.13;;;;;;;;;;5049949;28;20523;-84
2021/03/20 06:27:54;;;;;;;13.00;4.40;;;;;;;;;;5048152;28;20061;-84
2021/03/20 06:30:22;;;;;;;10.27;4.18;;;;;;;;;;5047724;28;20508;-85
2021/03/20 06:32:50;;;;;;;12.65;4.07;;;;;;;;;;5046020;28;20020;-84
2021/03/20 06:35:15;;;;;;;7.57;3.75;;;;;;;;;;5049503;28;20025;-84
2021/03/20 06:37:42;;;;;;;8.63;3.80;;;;;;;;;;5051264;28;20032;-83
2021/03/20 06:40:26;;;;;;;7.55;3.40;;;;;;;;;;5052124;28;20033;-84
2021/03/20 06:42:52;;;;;;;9.30;3.97;;;;;;;;;;5049352;28;20144;-84
2021/03/20 06:45:26;;;;;;;14.25;3.90;;;;;;;;;;5047291;28;20500;-83
2021/03/20 06:47:54;;;;;;;8.98;4.55;;;;;;;;;;5044804;28;20028;-84
2021/03/20 06:50:19;;;;;;;11.68;4.13;;;;;;;;;;5049038;28;20035;-84
2021/03/20 06:52:47;;;;;;;9.98;3.85;;;;;;;;;;5047837;28;20026;-84
2021/03/20 06:55:22;;;;;;;8.45;4.45;;;;;;;;;;5048848;28;20021;-84
2021/03/20 06:57:48;;;;;;;11.10;3.78;;;;;;;;;;5046606;28;20028;-85
2021/03/20 07:00:30;;;;;;;8.15;3.30;;;;;;;;;;5047212;28;20079;-85
2021/03/20 07:02:59;;;;;;;10.82;4.00;;;;;;;;;;5047179;28;20074;-85
2021/03/20 07:05:31;;;;;;;8.82;3.97;;;;;;;;;;5045273;28;20025;-85
2021/03/20 07:08:08;;;;;;;12.75;4.32;;;;;;;;;;5047551;28;20496;-85
2021/03/20 07:10:39;;;;;;;8.68;4.13;;;;;;;;;;5047245;28;20025;-85
2021/03/20 07:13:10;;;;;;;14.50;4.43;;;;;;;;;;5083060;23;20036;-66
2021/03/20 07:15:35;;;;;;;8.25;4.15;;;;;;;;;;5075380;28;20058;-66
2021/03/20 07:18:19;;;;;;;11.52;3.33;;;;;;;;;;5081591;28;20040;-67
2021/03/20 07:20:44;;;;;;;11.52;4.03;;;;;;;;;;5069116;28;20032;-66
2021/03/20 07:23:14;;;;;;;8.13;4.20;;;;;;;;;;5075434;28;20020;-66
2021/03/20 07:25:46;;;;;;;5.78;3.92;;;;;;;;;;5086338;28;20028;-66
2021/03/20 07:28:14;;;;;;;7.05;3.60;;;;;;;;;;5073891;28;20016;-66
2021/03/20 07:30:43;;;;;;;11.75;3.95;;;;;;;;;;5078930;28;20077;-66
2021/03/20 07:33:38;;;;;;;7.77;4.00;;;;;;;;;;5080885;28;20048;-66
2021/03/20 07:36:15;;;;;;;7.90;3.92;;;;;;;;;;5066438;28;20326;-66
2021/03/20 07:38:41;;;;;;;5.88;3.47;;;;;;;;;;5081139;28;20127;-66
2021/03/20 07:41:10;;;;;;;8.50;3.67;;;;;;;;;;5076325;28;20646;-67
2021/03/20 07:43:35;;;;;;;8.43;4.20;;;;;;;;;;5075940;28;20039;-66
2021/03/20 07:46:12;;;;;;;5.67;3.50;;;;;;;;;;5082240;28;20028;-66
2021/03/20 07:48:37;;;;;;;9.80;4.15;;;;;;;;;;5082367;28;20320;-67
2021/03/20 07:51:09;;;;;;;5.75;3.80;;;;;;;;;;5069913;28;20030;-67
2021/03/20 07:53:47;;;;;;;9.00;4.05;;;;;;;;;;5076766;28;20027;-66
2021/03/20 07:56:12;;;;;;;6.43;4.38;;;;;;;;;;5082894;28;20023;-66
2021/03/20 07:58:42;;;;;;;8.55;4.25;;;;;;;;;;5078558;28;20016;-65
2021/03/20 08:01:12;;;;;;;10.48;5.75;;;;;;;;;;5079905;28;20027;-66
2021/03/20 08:03:50;;;;;;;10.23;4.60;;;;;;;;;;5083793;28;20028;-66
2021/03/20 08:06:17;;;;;;;8.70;4.18;;;;;;;;;;5080561;28;20058;-66
2021/03/20 08:08:42;;;;;;;7.53;4.03;;;;;;;;;;5083183;28;20069;-66
2021/03/20 08:11:23;;;;;;;10.05;4.40;;;;;;;;;;5074599;28;20713;-67
2021/03/20 08:13:52;;;;;;;11.10;4.22;;;;;;;;;;5077024;28;20545;-67
2021/03/20 08:16:18;;;;;;;8.63;4.07;;;;;;;;;;5087642;28;20510;-66
2021/03/20 08:18:45;;;;;;;13.20;4.40;;;;;;;;;;5071936;28;20029;-67
2021/03/20 08:21:19;;;;;;;8.55;4.13;;;;;;;;;;5068154;28;20016;-67
2021/03/20 08:24:01;;;;;;;7.93;4.95;;;;;;;;;;5075208;28;20020;-66
2021/03/20 08:26:35;;;;;;;12.13;4.72;;;;;;;;;;5076665;28;20023;-67
2021/03/20 08:29:06;;;;;;;8.43;4.20;;;;;;;;;;5071586;28;20400;-66
2021/03/20 08:31:35;;;;;;;9.57;4.88;;;;;;;;;;5073637;28;20067;-66
2021/03/20 08:34:00;;;;;;;7.38;4.60;;;;;;;;;;5077518;28;20051;-66
2021/03/20 08:36:28;;;;;;;8.95;4.65;;;;;;;;;;5082458;28;20047;-66
2021/03/20 08:38:58;;;;;;;13.23;4.10;;;;;;;;;;5081643;28;20089;-67
2021/03/20 08:41:26;;;;;;;5.53;3.10;;;;;;;;;;5080366;28;20012;-67
2021/03/20 08:44:17;;;;;;;7.05;3.67;;;;;;;;;;5080519;28;20024;-67
2021/03/20 08:47:01;;;;;;;11.45;4.03;;;;;;;;;;5051862;28;20059;-67
2021/03/20 08:49:45;;;;;;;7.25;3.58;;;;;;;;;;5077833;28;20389;-67
2021/03/20 08:52:19;;;;;;;6.75;3.45;;;;;;;;;;5067512;28;20024;-67
2021/03/20 08:54:59;;;;;;;8.15;3.30;;;;;;;;;;5082309;28;20023;-67
2021/03/20 08:57:43;;;;;;;5.38;3.15;;;;;;;;;;5087462;28;20024;-67
2021/03/20 09:00:28;;;;;;;5.45;3.08;;;;;;;;;;5084712;28;20031;-67
2021/03/20 09:02:55;;;;;;;9.27;3.95;;;;;;;;;;5075310;28;20075;-67
2021/03/20 09:05:23;;;;;;;5.07;2.72;;;;;;;;;;5081359;28;20031;-67
2021/03/20 09:08:09;;;;;;;6.88;3.40;;;;;;;;;;5083149;28;20031;-67
2021/03/20 09:10:39;;;;;;;9.30;3.08;;;;;;;;;;5079792;28;20131;-67
2021/03/20 09:13:04;;;;;;;;;;;;;;;;;;5071538;28;20436;-67
2021/03/20 09:15:32;;;;;;;6.27;3.80;;;;;;;;;;5070951;28;20340;-67
2021/03/20 09:17:59;;;;;;;3.97;2.63;;;;;;;;;;5073758;28;20344;-67
2021/03/20 09:20:24;;;;;;;8.75;2.95;;;;;;;;;;5080577;28;20492;-67
2021/03/20 09:22:50;;;;;;;5.43;3.05;;;;;;;;;;5088398;28;20028;-67
2021/03/20 09:25:19;;;;;;;7.00;3.35;;;;;;;;;;5084417;28;20051;-67
2021/03/20 09:28:03;;;;;;;3.40;2.58;;;;;;;;;;5082557;28;20020;-67
2021/03/20 09:30:47;;;;;;;7.57;2.15;;;;;;;;;;5071205;28;20468;-67
2021/03/20 09:33:15;;;;;;;7.15;2.85;;;;;;;;;;5071365;28;20028;-67
2021/03/20 09:35:48;;;;;;;6.22;2.88;;;;;;;;;;5090111;28;20016;-67
2021/03/20 09:38:33;;;;;;;7.07;3.00;;;;;;;;;;5075137;28;20302;-67
2021/03/20 09:41:00;;;;;;;7.57;3.40;;;;;;;;;;5085524;28;20020;-66
2021/03/20 09:43:34;;;;;;;6.05;3.17;;;;;;;;;;5080171;28;20024;-67
2021/03/20 09:46:18;;;;;;;6.20;3.00;;;;;;;;;;5083848;28;20089;-67
2021/03/20 09:48:44;;;;;;;8.00;2.85;;;;;;;;;;5082016;28;20077;-67
2021/03/20 09:51:28;;;;;;;7.18;3.08;;;;;;;;;;5080842;28;20024;-67
2021/03/20 09:53:53;;;;;;;5.78;2.30;;;;;;;;;;5082426;28;20012;-66
2021/03/20 09:56:26;;;;;;;7.10;2.47;;;;;;;;;;5090140;28;20534;-67
2021/03/20 09:58:51;;;;;;;7.03;2.70;;;;;;;;;;5072145;28;20651;-67
2021/03/20 10:01:17;;;;;;;8.88;3.03;;;;;;;;;;5070764;28;20024;-66
2021/03/20 10:03:53;;;;;;;3.72;2.30;;;;;;;;;;5069497;28;20031;-67
2021/03/20 10:06:18;;;;;;;4.80;2.45;;;;;;;;;;5068992;28;20056;-67
2021/03/20 10:08:44;;;;;;;10.73;2.67;;;;;;;;;;5074466;28;20044;-67
2021/03/20 10:11:27;;;;;;;8.90;2.47;;;;;;;;;;5087008;28;20357;-67
2021/03/20 10:13:52;;;;;;;5.97;2.90;;;;;;;;;;5072920;28;20124;-67
2021/03/20 10:16:20;;;;;;;8.90;3.58;;;;;;;;;;5085580;28;20471;-67
2021/03/20 10:18:51;;;;;;;5.85;2.35;;;;;;;;;;5080707;28;20477;-67
2021/03/20 10:21:23;;;;;;;3.83;2.47;;;;;;;;;;5078314;28;20486;-67
2021/03/20 10:23:53;;;;;;;9.15;2.90;;;;;;;;;;5083652;28;20020;-67
2021/03/20 10:26:21;;;;;;;3.45;2.10;;;;;;;;;;5084892;28;20102;-66
2021/03/20 10:28:51;;;;;;;5.38;2.65;;;;;;;;;;5070664;28;20028;-67
2021/03/20 10:31:17;;;;;;;8.13;3.00;;;;;;;;;;5084506;28;20020;-67
2021/03/20 10:33:43;;;;;;;6.25;2.90;;;;;;;;;;5078629;28;20077;-67
2021/03/20 10:36:14;;;;;;;5.20;2.55;;;;;;;;;;5082127;28;20032;-66
2021/03/20 10:38:41;;;;;;;5.85;2.55;;;;;;;;;;5077802;28;20476;-67
2021/03/20 10:41:11;;;;;;;4.93;2.05;;;;;;;;;;5083018;28;20028;-67
2021/03/20 10:43:36;;;;;;;;;;;;;;;;;;5074669;28;20376;-67
2021/03/20 10:46:01;;;;;;;6.40;2.50;;;;;;;;;;5068956;28;20190;-67
2021/03/20 10:48:28;;;;;;;3.63;2.25;;;;;;;;;;5068545;28;20504;-69
2021/03/20 10:51:01;;;;;;;3.85;2.42;;;;;;;;;;5069007;28;20260;-67
2021/03/20 10:53:29;;;;;;;6.47;2.80;;;;;;;;;;5072239;28;20495;-67
2021/03/20 10:55:55;;;;;;;4.82;2.50;;;;;;;;;;5078417;28;20023;-67
2021/03/20 10:58:29;;;;;;;5.47;2.45;;;;;;;;;;5087741;28;20097;-68
2021/03/20 11:00:55;;;;;;;3.75;1.98;;;;;;;;;;5079827;28;20066;-67
2021/03/20 11:03:34;;;;;;;3.40;2.10;;;;;;;;;;5087666;28;20059;-67
2021/03/20 11:06:10;;;;;;;3.33;1.80;;;;;;;;;;5082200;28;20040;-67
2021/03/20 11:08:35;;;;;;;7.13;2.42;;;;;;;;;;5072291;28;20035;-67
2021/03/20 11:11:07;;;;;;;5.75;2.45;;;;;;;;;;5084951;28;20028;-67
2021/03/20 11:13:35;;;;;;;4.50;2.50;;;;;;;;;;5089108;28;20028;-67
2021/03/20 11:16:19;;;;;;;8.10;2.60;;;;;;;;;;5074174;28;20388;-66
2021/03/20 11:19:02;;;;;;;10.68;3.00;;;;;;;;;;5071862;28;20419;-66
2021/03/20 11:21:33;;;;;;;6.18;2.55;;;;;;;;;;5081186;28;20093;-66
2021/03/20 11:24:00;;;;;;;5.32;2.95;;;;;;;;;;5070718;28;20017;-66
2021/03/20 11:26:37;;;;;;;6.65;2.88;;;;;;;;;;5070606;28;20023;-67
2021/03/20 11:29:03;;;;;;;5.90;2.40;;;;;;;;;;5070499;28;20016;-66
2021/03/20 11:31:33;;;;;;;5.75;2.88;;;;;;;;;;5084567;28;20035;-67
2021/03/20 11:33:59;;;;;;;6.05;2.50;;;;;;;;;;5090963;28;20043;-67
2021/03/20 11:36:25;;;;;;;10.68;2.70;;;;;;;;;;5089750;28;20020;-67
2021/03/20 11:38:51;;;;;;;3.70;2.00;;;;;;;;;;5090520;28;20103;-67
2021/03/20 11:41:19;;;;;;;6.43;2.40;;;;;;;;;;5090784;28;20476;-67
2021/03/20 11:43:46;;;;;;;7.00;2.38;;;;;;;;;;5090596;28;20020;-67
2021/03/20 11:46:20;;;;;;;8.77;2.28;;;;;;;;;;5087764;28;20016;-67
2021/03/20 11:49:03;;;;;;;6.00;2.30;;;;;;;;;;5090341;28;20045;-67
2021/03/20 11:51:30;;;;;;;2.88;1.65;;;;;;;;;;5070503;28;20040;-67
2021/03/20 11:53:58;;;;;;;3.83;1.88;;;;;;;;;;5083140;28;20467;-67
2021/03/20 11:56:30;;;;;;;5.20;1.85;;;;;;;;;;5076027;28;20027;-67
2021/03/20 11:58:57;;;;;;;6.20;2.00;;;;;;;;;;5084412;28;20024;-67
2021/03/20 12:01:24;;;;;;;3.40;2.03;;;;;;;;;;5088804;28;20038;-67
2021/03/20 12:03:50;;;;;;;5.55;2.00;;;;;;;;;;5071184;28;20021;-67
2021/03/20 12:06:15;;;;;;;6.65;2.60;;;;;;;;;;5089475;28;20035;-67
2021/03/20 12:08:51;;;;;;;6.63;1.85;;;;;;;;;;5088869;28;20020;-69
2021/03/20 12:11:17;;;;;;;3.83;2.20;;;;;;;;;;5086634;28;20262;-67
2021/03/20 12:13:45;;;;;;;5.55;2.30;;;;;;;;;;5069991;28;20531;-68
2021/03/20 12:16:28;;;;;;;3.42;1.70;;;;;;;;;;5070389;28;20046;-68
2021/03/20 12:19:07;;;;;;;6.72;1.88;;;;;;;;;;5082231;28;20057;-68
2021/03/20 12:21:32;;;;;;;5.50;2.40;;;;;;;;;;5087191;28;20066;-67
2021/03/20 12:23:59;;;;;;;6.43;1.92;;;;;;;;;;5088580;28;20527;-67
2021/03/20 12:26:32;;;;;;;5.15;1.98;;;;;;;;;;5077627;28;20016;-68
2021/03/20 12:29:16;;;;;;;3.67;1.85;;;;;;;;;;5070850;28;20092;-67
2021/03/20 12:31:41;;;;;;;4.35;1.73;;;;;;;;;;5078489;28;20563;-67
2021/03/20 12:34:06;;;;;;;5.03;1.67;;;;;;;;;;5079710;28;20066;-67
2021/03/20 12:36:37;;;;;;;2.97;1.93;;;;;;;;;;5073540;28;20016;-67
2021/03/20 12:39:03;;;;;;;3.10;1.73;;;;;;;;;;5089899;28;20250;-67
2021/03/20 12:41:30;;;;;;;5.40;1.95;;;;;;;;;;5097127;28;20027;-67
2021/03/20 12:44:04;;;;;;;4.70;2.50;;;;;;;;;;5112308;28;20027;-67
2021/03/20 12:46:29;;;;;;;2.42;1.60;;;;;;;;;;5087689;28;20016;-67
2021/03/20 12:48:55;;;;;;;3.78;1.90;;;;;;;;;;5072923;28;20023;-67
2021/03/20 12:51:22;;;;;;;3.97;1.98;;;;;;;;;;5073835;28;20017;-67
2021/03/20 12:53:47;;;;;;;3.60;1.60;;;;;;;;;;5073582;28;20445;-67
2021/03/20 12:56:13;;;;;;;6.18;1.60;;;;;;;;;;5073355;28;20103;-67
2021/03/20 12:58:38;;;;;;;3.37;1.50;;;;;;;;;;5085979;28;20063;-67
2021/03/20 13:01:03;;;;;;;3.30;1.80;;;;;;;;;;5084673;28;20274;-67
2021/03/20 13:03:32;;;;;;;4.93;1.75;;;;;;;;;;5078456;28;20706;-67
2021/03/20 13:05:58;;;;;;;4.05;1.80;;;;;;;;;;5086857;28;20013;-67
2021/03/20 13:08:23;;;;;;;4.22;1.77;;;;;;;;;;5085680;28;20031;-67
2021/03/20 13:10:48;;;;;;;4.90;1.85;;;;;;;;;;5090637;28;20020;-67
2021/03/20 13:13:13;;;;;;;5.78;1.75;;;;;;;;;;5092592;28;20024;-67
2021/03/20 13:15:38;;;;;;;3.80;1.60;;;;;;;;;;5084794;28;20028;-68
2021/03/20 13:18:04;;;;;;;3.67;1.50;;;;;;;;;;5088980;28;20817;-67
2021/03/20 13:20:29;;;;;;;6.22;2.00;;;;;;;;;;5087031;28;20320;-69
2021/03/20 13:22:54;;;;;;;3.80;1.52;;;;;;;;;;5085503;28;20029;-67
2021/03/20 13:25:25;;;;;;;8.73;1.63;;;;;;;;;;5076795;22;20454;-64
2021/03/20 13:27:50;;;;;;;;;;;;;;;;;;5053188;28;20021;-65
2021/03/20 13:30:18;;;;;;;3.58;1.65;;;;;;;;;;5040812;28;19972;-64
2021/03/20 13:32:43;;;;;;;4.03;1.90;;;;;;;;;;5052219;28;20031;-65
2021/03/20 13:35:10;;;;;;;2.77;1.60;;;;;;;;;;5050210;28;20025;-64
2021/03/20 13:37:35;;;;;;;4.18;1.83;;;;;;;;;;5050555;28;20279;-69
2021/03/20 13:40:00;;;;;;;4.03;1.40;;;;;;;;;;5051030;28;20029;-67
2021/03/20 13:42:25;;;;;;;7.68;1.40;;;;;;;;;;5051870;28;20275;-64
2021/03/20 13:44:51;;;;;;;4.85;1.80;;;;;;;;;;5051764;28;20021;-66
2021/03/20 13:47:16;;;;;;;4.40;1.70;;;;;;;;;;5047546;28;20020;-65
2021/03/20 13:49:41;;;;;;;5.10;1.98;;;;;;;;;;5047754;28;20505;-65
2021/03/20 13:52:07;;;;;;;5.87;1.40;;;;;;;;;;5049986;28;20069;-66
2021/03/20 13:54:32;;;;;;;2.92;1.67;;;;;;;;;;5050863;28;20275;-64
2021/03/20 13:56:57;;;;;;;3.80;1.63;;;;;;;;;;5052088;28;20074;-67
2021/03/20 13:59:22;;;;;;;3.87;2.83;;;;;;;;;;5049835;28;20291;-64
2021/03/20 14:01:47;;;;;;;3.63;2.00;;;;;;;;;;5051404;28;20370;-67
2021/03/20 14:04:13;;;;;;;4.80;1.98;;;;;;;;;;5050823;28;21129;-64
2021/03/20 14:06:38;;;;;;;4.00;1.92;;;;;;;;;;5050919;28;20029;-66
2021/03/20 14:09:03;;;;;;;2.50;1.30;;;;;;;;;;5051331;28;20094;-65
2021/03/20 14:11:28;;;;;;;3.45;1.50;;;;;;;;;;5050455;28;20050;-65
2021/03/20 14:13:53;;;;;;;3.78;1.77;;;;;;;;;;5051402;28;20016;-65
2021/03/20 14:16:19;;;;;;;5.78;1.38;;;;;;;;;;5050847;28;20482;-64
2021/03/20 14:18:44;;;;;;;3.20;1.50;;;;;;;;;;5050951;28;20021;-64
2021/03/20 14:21:13;;;;;;;3.10;1.58;;;;;;;;;;5050897;28;20020;-67
2021/03/20 14:23:39;;;;;;;5.35;1.80;;;;;;;;;;5050983;28;20031;-64
2021/03/20 14:26:04;;;;;;;4.35;1.63;;;;;;;;;;5050608;28;20017;-64
2021/03/20 14:28:29;;;;;;;3.67;1.50;;;;;;;;;;5050380;28;20051;-64
2021/03/20 14:30:56;;;;;;;3.38;1.63;;;;;;;;;;5050823;28;20108;-64
2021/03/20 14:33:22;;;;;;;3.47;1.48;;;;;;;;;;5050376;28;20021;-64
2021/03/20 14:35:49;;;;;;;4.93;1.30;;;;;;;;;;5045764;28;20029;-64
2021/03/20 14:38:15;;;;;;;7.30;1.50;;;;;;;;;;5050357;28;20036;-64
2021/03/20 14:40:41;;;;;;;2.08;1.27;;;;;;;;;;5050575;28;20029;-64
2021/03/20 14:43:08;;;;;;;3.03;1.60;;;;;;;;;;5050988;28;20039;-64
2021/03/20 14:45:33;;;;;;;5.78;1.52;;;;;;;;;;5050555;28;20025;-64
2021/03/20 14:47:58;;;;;;;5.90;1.90;;;;;;;;;;5050500;28;20440;-64
2021/03/20 14:50:29;;;;;;;7.43;1.92;;;;;;;;;;5050540;28;20025;-63
2021/03/20 14:52:54;;;;;;;;;;;;;;;;;;5050420;28;20070;-64